sensor_id;sensor_type;location;lat;lon;timestamp;temperature;humidity
20714;DHT22;10518;50.742;4.226;2022-11-15T00:00:16;13.20;99.90
20714;DHT22;10518;50.742;4.226;2022-11-15T00:02:42;13.10;99.90
20714;DHT22;10518;50.742;4.226;2022-11-15T00:05:08;13.10;99.90
20714;DHT22;10518;50.742;4.226;2022-11-15T00:07:33;13.10;99.90
20714;DHT22;10518;50.742;4.226;2022-11-15T00:09:59;13.10;99.90
20714;DHT22;10518;50.742;4.226;2022-11-15T00:12:27;13.10;99.90
20714;DHT22;10518;50.742;4.226;2022-11-15T00:14:53;13.20;99.90
20714;DHT22;10518;50.742;4.226;2022-11-15T00:17:18;13.00;99.90
20714;DHT22;10518;50.742;4.226;2022-11-15T00:19:44;12.90;99.90
20714;DHT22;10518;50.742;4.226;2022-11-15T00:22:10;13.00;99.90
20714;DHT22;10518;50.742;4.226;2022-11-15T00:24:35;13.10;99.90
20714;DHT22;10518;50.742;4.226;2022-11-15T00:27:01;13.20;99.90
20714;DHT22;10518;50.742;4.226;2022-11-15T00:29:27;13.30;99.90
20714;DHT22;10518;50.742;4.226;2022-11-15T00:31:52;13.20;99.90
20714;DHT22;10518;50.742;4.226;2022-11-15T00:34:18;13.10;99.90
20714;DHT22;10518;50.742;4.226;2022-11-15T00:36:43;13.20;99.90
20714;DHT22;10518;50.742;4.226;2022-11-15T00:39:09;13.20;99.90
20714;DHT22;10518;50.742;4.226;2022-11-15T00:41:35;13.30;99.90
20714;DHT22;10518;50.742;4.226;2022-11-15T00:44:00;13.30;99.90
20714;DHT22;10518;50.742;4.226;2022-11-15T00:46:26;13.10;99.90
20714;DHT22;10518;50.742;4.226;2022-11-15T00:48:51;13.20;99.90
20714;DHT22;10518;50.742;4.226;2022-11-15T00:51:17;13.00;99.90
20714;DHT22;10518;50.742;4.226;2022-11-15T00:53:42;13.20;99.90
20714;DHT22;10518;50.742;4.226;2022-11-15T00:56:08;13.30;99.90
20714;DHT22;10518;50.742;4.226;2022-11-15T00:58:33;13.50;99.90
20714;DHT22;10518;50.742;4.226;2022-11-15T01:01:17;13.60;99.90
20714;DHT22;10518;50.742;4.226;2022-11-15T01:03:43;13.70;99.90
20714;DHT22;10518;50.742;4.226;2022-11-15T01:06:09;13.60;99.90
20714;DHT22;10518;50.742;4.226;2022-11-15T01:08:35;13.60;99.90
20714;DHT22;10518;50.742;4.226;2022-11-15T01:11:06;13.50;99.90
20714;DHT22;10518;50.742;4.226;2022-11-15T01:13:33;13.60;99.90
20714;DHT22;10518;50.742;4.226;2022-11-15T01:16:33;13.40;99.90
20714;DHT22;10518;50.742;4.226;2022-11-15T01:18:51;13.30;99.90
20714;DHT22;10518;50.742;4.226;2022-11-15T01:21:18;13.30;99.90
20714;DHT22;10518;50.742;4.226;2022-11-15T01:23:44;13.30;99.90
20714;DHT22;10518;50.742;4.226;2022-11-15T01:26:14;13.30;99.90
20714;DHT22;10518;50.742;4.226;2022-11-15T01:28:41;13.20;99.90
20714;DHT22;10518;50.742;4.226;2022-11-15T01:31:14;13.20;99.90
20714;DHT22;10518;50.742;4.226;2022-11-15T01:33:40;13.00;99.90
20714;DHT22;10518;50.742;4.226;2022-11-15T01:36:08;13.00;99.90
20714;DHT22;10518;50.742;4.226;2022-11-15T01:38:34;12.90;99.90
20714;DHT22;10518;50.742;4.226;2022-11-15T01:41:00;12.90;99.90
20714;DHT22;10518;50.742;4.226;2022-11-15T01:43:28;12.80;99.90
20714;DHT22;10518;50.742;4.226;2022-11-15T01:48:52;12.90;99.90
20714;DHT22;10518;50.742;4.226;2022-11-15T01:51:20;13.00;99.90
20714;DHT22;10518;50.742;4.226;2022-11-15T01:53:50;13.20;99.90
20714;DHT22;10518;50.742;4.226;2022-11-15T01:56:19;13.30;99.90
20714;DHT22;10518;50.742;4.226;2022-11-15T01:58:45;13.20;99.90
20714;DHT22;10518;50.742;4.226;2022-11-15T02:01:13;13.30;99.90
20714;DHT22;10518;50.742;4.226;2022-11-15T02:03:47;13.30;99.90
20714;DHT22;10518;50.742;4.226;2022-11-15T02:06:15;13.30;99.90
20714;DHT22;10518;50.742;4.226;2022-11-15T02:08:41;13.20;99.90
20714;DHT22;10518;50.742;4.226;2022-11-15T02:11:08;13.20;99.90
20714;DHT22;10518;50.742;4.226;2022-11-15T02:13:35;13.10;99.90
20714;DHT22;10518;50.742;4.226;2022-11-15T02:22:07;13.00;99.90
20714;DHT22;10518;50.742;4.226;2022-11-15T02:27:34;13.10;99.90
20714;DHT22;10518;50.742;4.226;2022-11-15T02:30:16;13.10;99.90
20714;DHT22;10518;50.742;4.226;2022-11-15T02:32:57;13.10;99.90
20714;DHT22;10518;50.742;4.226;2022-11-15T02:38:05;13.10;99.90
20714;DHT22;10518;50.742;4.226;2022-11-15T02:41:04;13.00;99.90
20714;DHT22;10518;50.742;4.226;2022-11-15T02:43:40;13.10;99.90
20714;DHT22;10518;50.742;4.226;2022-11-15T02:46:40;13.00;99.90
20714;DHT22;10518;50.742;4.226;2022-11-15T02:49:27;13.30;99.90
20714;DHT22;10518;50.742;4.226;2022-11-15T02:51:55;13.30;99.90
20714;DHT22;10518;50.742;4.226;2022-11-15T02:54:26;13.30;99.90
20714;DHT22;10518;50.742;4.226;2022-11-15T02:57:00;13.40;99.90
20714;DHT22;10518;50.742;4.226;2022-11-15T03:02:21;13.30;99.90
20714;DHT22;10518;50.742;4.226;2022-11-15T03:07:29;13.30;99.90
20714;DHT22;10518;50.742;4.226;2022-11-15T03:10:32;13.10;99.90
20714;DHT22;10518;50.742;4.226;2022-11-15T03:16:16;13.10;99.90
20714;DHT22;10518;50.742;4.226;2022-11-15T03:18:49;13.00;99.90
20714;DHT22;10518;50.742;4.226;2022-11-15T03:21:18;13.10;99.90
20714;DHT22;10518;50.742;4.226;2022-11-15T03:23:47;13.00;99.90
20714;DHT22;10518;50.742;4.226;2022-11-15T03:26:14;13.20;99.90
20714;DHT22;10518;50.742;4.226;2022-11-15T03:28:54;12.90;99.90
20714;DHT22;10518;50.742;4.226;2022-11-15T03:31:21;12.90;99.90
20714;DHT22;10518;50.742;4.226;2022-11-15T03:34:09;13.10;99.90
20714;DHT22;10518;50.742;4.226;2022-11-15T03:36:37;13.00;99.90
20714;DHT22;10518;50.742;4.226;2022-11-15T03:39:06;12.80;99.90
20714;DHT22;10518;50.742;4.226;2022-11-15T03:41:42;12.80;99.90
20714;DHT22;10518;50.742;4.226;2022-11-15T03:50:10;13.10;99.90
20714;DHT22;10518;50.742;4.226;2022-11-15T03:52:37;13.00;99.90
20714;DHT22;10518;50.742;4.226;2022-11-15T03:55:07;12.80;99.90
20714;DHT22;10518;50.742;4.226;2022-11-15T03:57:33;12.70;99.90
20714;DHT22;10518;50.742;4.226;2022-11-15T03:59:58;12.90;99.90
20714;DHT22;10518;50.742;4.226;2022-11-15T04:02:24;13.20;99.90
20714;DHT22;10518;50.742;4.226;2022-11-15T04:04:50;13.00;99.90
20714;DHT22;10518;50.742;4.226;2022-11-15T04:07:15;12.80;99.90
20714;DHT22;10518;50.742;4.226;2022-11-15T04:09:41;12.90;99.90
20714;DHT22;10518;50.742;4.226;2022-11-15T04:12:25;13.00;99.90
20714;DHT22;10518;50.742;4.226;2022-11-15T04:14:58;12.90;99.90
20714;DHT22;10518;50.742;4.226;2022-11-15T04:17:53;12.60;99.90
20714;DHT22;10518;50.742;4.226;2022-11-15T04:20:20;12.90;99.90
20714;DHT22;10518;50.742;4.226;2022-11-15T04:23:08;12.80;99.90
20714;DHT22;10518;50.742;4.226;2022-11-15T04:25:54;12.70;99.90
20714;DHT22;10518;50.742;4.226;2022-11-15T04:28:21;12.60;99.90
20714;DHT22;10518;50.742;4.226;2022-11-15T04:30:47;12.50;99.90
20714;DHT22;10518;50.742;4.226;2022-11-15T04:33:12;12.60;99.90
20714;DHT22;10518;50.742;4.226;2022-11-15T04:35:38;12.70;99.90
20714;DHT22;10518;50.742;4.226;2022-11-15T04:38:07;12.80;99.90
20714;DHT22;10518;50.742;4.226;2022-11-15T04:40:33;12.70;99.90
20714;DHT22;10518;50.742;4.226;2022-11-15T04:42:59;12.50;99.90
20714;DHT22;10518;50.742;4.226;2022-11-15T04:45:24;12.50;99.90
20714;DHT22;10518;50.742;4.226;2022-11-15T04:47:50;12.40;99.90
20714;DHT22;10518;50.742;4.226;2022-11-15T04:50:15;12.30;99.90
20714;DHT22;10518;50.742;4.226;2022-11-15T04:52:43;12.30;99.90
20714;DHT22;10518;50.742;4.226;2022-11-15T04:55:10;12.20;99.90
20714;DHT22;10518;50.742;4.226;2022-11-15T04:57:36;12.10;99.90
20714;DHT22;10518;50.742;4.226;2022-11-15T05:00:07;12.30;99.90
20714;DHT22;10518;50.742;4.226;2022-11-15T05:02:33;12.30;99.90
20714;DHT22;10518;50.742;4.226;2022-11-15T05:05:18;12.10;99.90
20714;DHT22;10518;50.742;4.226;2022-11-15T05:07:43;12.10;99.90
20714;DHT22;10518;50.742;4.226;2022-11-15T05:10:09;12.10;99.90
20714;DHT22;10518;50.742;4.226;2022-11-15T05:12:35;12.10;99.90
20714;DHT22;10518;50.742;4.226;2022-11-15T05:15:00;11.70;99.90
20714;DHT22;10518;50.742;4.226;2022-11-15T05:17:26;11.80;99.90
20714;DHT22;10518;50.742;4.226;2022-11-15T05:19:51;11.90;99.90
20714;DHT22;10518;50.742;4.226;2022-11-15T05:22:18;12.00;99.90
20714;DHT22;10518;50.742;4.226;2022-11-15T05:24:44;11.70;99.90
20714;DHT22;10518;50.742;4.226;2022-11-15T05:27:09;11.80;99.90
20714;DHT22;10518;50.742;4.226;2022-11-15T05:29:35;11.70;99.90
20714;DHT22;10518;50.742;4.226;2022-11-15T05:32:00;11.50;99.90
20714;DHT22;10518;50.742;4.226;2022-11-15T05:34:26;11.50;99.90
20714;DHT22;10518;50.742;4.226;2022-11-15T05:36:52;11.50;99.90
20714;DHT22;10518;50.742;4.226;2022-11-15T05:39:18;11.60;99.90
20714;DHT22;10518;50.742;4.226;2022-11-15T05:41:51;11.80;99.90
20714;DHT22;10518;50.742;4.226;2022-11-15T05:44:21;11.80;99.90
20714;DHT22;10518;50.742;4.226;2022-11-15T05:46:49;11.90;99.90
20714;DHT22;10518;50.742;4.226;2022-11-15T05:49:18;11.90;99.90
20714;DHT22;10518;50.742;4.226;2022-11-15T05:51:46;11.70;99.90
20714;DHT22;10518;50.742;4.226;2022-11-15T05:54:12;11.70;99.90
20714;DHT22;10518;50.742;4.226;2022-11-15T05:56:39;11.80;99.90
20714;DHT22;10518;50.742;4.226;2022-11-15T05:59:05;11.90;99.90
20714;DHT22;10518;50.742;4.226;2022-11-15T06:01:32;11.90;99.90
20714;DHT22;10518;50.742;4.226;2022-11-15T06:03:57;11.40;99.90
20714;DHT22;10518;50.742;4.226;2022-11-15T06:06:23;10.90;99.90
20714;DHT22;10518;50.742;4.226;2022-11-15T06:08:48;11.30;99.90
20714;DHT22;10518;50.742;4.226;2022-11-15T06:11:14;11.30;99.90
20714;DHT22;10518;50.742;4.226;2022-11-15T06:13:40;11.50;99.90
20714;DHT22;10518;50.742;4.226;2022-11-15T06:16:05;11.60;99.90
20714;DHT22;10518;50.742;4.226;2022-11-15T06:18:32;11.40;99.90
20714;DHT22;10518;50.742;4.226;2022-11-15T06:20:59;11.40;99.90
20714;DHT22;10518;50.742;4.226;2022-11-15T06:23:25;11.30;99.90
20714;DHT22;10518;50.742;4.226;2022-11-15T06:25:50;11.20;99.90
20714;DHT22;10518;50.742;4.226;2022-11-15T06:28:16;11.00;99.90
20714;DHT22;10518;50.742;4.226;2022-11-15T06:30:41;11.20;99.90
20714;DHT22;10518;50.742;4.226;2022-11-15T06:33:07;11.10;99.90
20714;DHT22;10518;50.742;4.226;2022-11-15T06:35:34;11.10;99.90
20714;DHT22;10518;50.742;4.226;2022-11-15T06:38:08;11.20;99.90
20714;DHT22;10518;50.742;4.226;2022-11-15T06:40:35;11.40;99.90
20714;DHT22;10518;50.742;4.226;2022-11-15T06:43:02;11.20;99.90
20714;DHT22;10518;50.742;4.226;2022-11-15T06:45:28;11.10;99.90
20714;DHT22;10518;50.742;4.226;2022-11-15T06:47:54;11.00;99.90
20714;DHT22;10518;50.742;4.226;2022-11-15T06:50:20;11.10;99.90
20714;DHT22;10518;50.742;4.226;2022-11-15T06:52:45;11.40;99.90
20714;DHT22;10518;50.742;4.226;2022-11-15T06:55:11;11.20;99.90
20714;DHT22;10518;50.742;4.226;2022-11-15T06:57:36;10.80;99.90
20714;DHT22;10518;50.742;4.226;2022-11-15T07:00:06;11.00;99.90
20714;DHT22;10518;50.742;4.226;2022-11-15T07:02:31;10.80;99.90
20714;DHT22;10518;50.742;4.226;2022-11-15T07:04:57;10.70;99.90
20714;DHT22;10518;50.742;4.226;2022-11-15T07:07:23;10.90;99.90
20714;DHT22;10518;50.742;4.226;2022-11-15T07:09:48;10.90;99.90
20714;DHT22;10518;50.742;4.226;2022-11-15T07:12:14;10.70;99.90
20714;DHT22;10518;50.742;4.226;2022-11-15T07:14:39;10.70;99.90
20714;DHT22;10518;50.742;4.226;2022-11-15T07:17:05;10.70;99.90
20714;DHT22;10518;50.742;4.226;2022-11-15T07:19:31;10.80;99.90
20714;DHT22;10518;50.742;4.226;2022-11-15T07:21:56;11.00;99.90
20714;DHT22;10518;50.742;4.226;2022-11-15T07:24:22;10.90;99.90
20714;DHT22;10518;50.742;4.226;2022-11-15T07:26:48;10.80;99.90
20714;DHT22;10518;50.742;4.226;2022-11-15T07:29:13;11.00;99.90
20714;DHT22;10518;50.742;4.226;2022-11-15T07:31:39;11.00;99.90
20714;DHT22;10518;50.742;4.226;2022-11-15T07:34:05;11.10;99.90
20714;DHT22;10518;50.742;4.226;2022-11-15T07:36:30;10.80;99.90
20714;DHT22;10518;50.742;4.226;2022-11-15T07:38:56;10.70;99.90
20714;DHT22;10518;50.742;4.226;2022-11-15T07:41:21;10.90;99.90
20714;DHT22;10518;50.742;4.226;2022-11-15T07:43:47;10.90;99.90
20714;DHT22;10518;50.742;4.226;2022-11-15T07:46:16;10.90;99.90
20714;DHT22;10518;50.742;4.226;2022-11-15T07:48:41;10.80;99.90
20714;DHT22;10518;50.742;4.226;2022-11-15T07:51:07;10.70;99.90
20714;DHT22;10518;50.742;4.226;2022-11-15T07:53:35;10.70;99.90
20714;DHT22;10518;50.742;4.226;2022-11-15T07:56:01;10.90;99.90
20714;DHT22;10518;50.742;4.226;2022-11-15T07:58:26;10.80;99.90
20714;DHT22;10518;50.742;4.226;2022-11-15T08:00:52;10.70;99.90
20714;DHT22;10518;50.742;4.226;2022-11-15T08:03:17;10.70;99.90
20714;DHT22;10518;50.742;4.226;2022-11-15T08:05:43;10.80;99.90
20714;DHT22;10518;50.742;4.226;2022-11-15T08:08:14;10.70;99.90
20714;DHT22;10518;50.742;4.226;2022-11-15T08:10:40;10.70;99.90
20714;DHT22;10518;50.742;4.226;2022-11-15T08:13:08;10.70;99.90
20714;DHT22;10518;50.742;4.226;2022-11-15T08:15:35;10.70;99.90
20714;DHT22;10518;50.742;4.226;2022-11-15T08:18:03;10.50;99.90
20714;DHT22;10518;50.742;4.226;2022-11-15T08:20:30;10.60;99.90
20714;DHT22;10518;50.742;4.226;2022-11-15T08:22:57;10.70;99.90
20714;DHT22;10518;50.742;4.226;2022-11-15T08:25:24;11.00;99.90
20714;DHT22;10518;50.742;4.226;2022-11-15T08:27:52;10.90;99.90
20714;DHT22;10518;50.742;4.226;2022-11-15T08:30:18;10.80;99.90
20714;DHT22;10518;50.742;4.226;2022-11-15T08:32:44;10.70;99.90
20714;DHT22;10518;50.742;4.226;2022-11-15T08:35:09;10.70;99.90
20714;DHT22;10518;50.742;4.226;2022-11-15T08:37:35;10.70;99.90
20714;DHT22;10518;50.742;4.226;2022-11-15T08:40:01;10.70;99.90
20714;DHT22;10518;50.742;4.226;2022-11-15T08:42:26;10.80;99.90
20714;DHT22;10518;50.742;4.226;2022-11-15T08:44:52;10.90;99.90
20714;DHT22;10518;50.742;4.226;2022-11-15T08:47:18;11.00;99.90
20714;DHT22;10518;50.742;4.226;2022-11-15T08:49:43;10.80;99.90
20714;DHT22;10518;50.742;4.226;2022-11-15T08:52:09;11.10;99.90
20714;DHT22;10518;50.742;4.226;2022-11-15T08:54:34;11.10;99.90
20714;DHT22;10518;50.742;4.226;2022-11-15T08:57:00;11.30;99.90
20714;DHT22;10518;50.742;4.226;2022-11-15T08:59:26;11.20;99.90
20714;DHT22;10518;50.742;4.226;2022-11-15T09:01:51;11.40;99.90
20714;DHT22;10518;50.742;4.226;2022-11-15T09:04:17;11.20;99.90
20714;DHT22;10518;50.742;4.226;2022-11-15T09:06:43;11.40;99.90
20714;DHT22;10518;50.742;4.226;2022-11-15T09:09:08;11.50;99.90
20714;DHT22;10518;50.742;4.226;2022-11-15T09:11:34;11.70;99.90
20714;DHT22;10518;50.742;4.226;2022-11-15T09:13:59;11.60;99.90
20714;DHT22;10518;50.742;4.226;2022-11-15T09:16:25;11.50;99.90
20714;DHT22;10518;50.742;4.226;2022-11-15T09:18:51;11.50;99.90
20714;DHT22;10518;50.742;4.226;2022-11-15T09:21:17;11.50;99.90
20714;DHT22;10518;50.742;4.226;2022-11-15T09:23:42;11.70;99.90
20714;DHT22;10518;50.742;4.226;2022-11-15T09:26:08;11.70;99.90
20714;DHT22;10518;50.742;4.226;2022-11-15T09:28:34;11.50;99.90
20714;DHT22;10518;50.742;4.226;2022-11-15T09:31:01;11.50;99.90
20714;DHT22;10518;50.742;4.226;2022-11-15T09:33:27;11.50;99.90
20714;DHT22;10518;50.742;4.226;2022-11-15T09:35:53;11.50;99.90
20714;DHT22;10518;50.742;4.226;2022-11-15T09:38:19;11.60;99.90
20714;DHT22;10518;50.742;4.226;2022-11-15T09:40:49;11.60;99.90
20714;DHT22;10518;50.742;4.226;2022-11-15T09:43:31;11.70;99.90
20714;DHT22;10518;50.742;4.226;2022-11-15T09:48:42;11.80;99.90
20714;DHT22;10518;50.742;4.226;2022-11-15T09:51:26;11.70;99.90
20714;DHT22;10518;50.742;4.226;2022-11-15T09:56:37;11.60;99.90
20714;DHT22;10518;50.742;4.226;2022-11-15T09:59:23;11.70;99.90
20714;DHT22;10518;50.742;4.226;2022-11-15T10:04:25;11.90;99.90
20714;DHT22;10518;50.742;4.226;2022-11-15T10:07:23;12.00;99.90
20714;DHT22;10518;50.742;4.226;2022-11-15T10:09:58;12.20;99.90
20714;DHT22;10518;50.742;4.226;2022-11-15T10:12:27;12.50;99.90
20714;DHT22;10518;50.742;4.226;2022-11-15T10:15:03;12.40;99.90
20714;DHT22;10518;50.742;4.226;2022-11-15T10:20:25;12.60;99.90
20714;DHT22;10518;50.742;4.226;2022-11-15T10:22:55;12.50;99.90
20714;DHT22;10518;50.742;4.226;2022-11-15T10:30:19;12.80;99.90
20714;DHT22;10518;50.742;4.226;2022-11-15T10:32:46;13.20;99.90
20714;DHT22;10518;50.742;4.226;2022-11-15T10:35:44;13.20;99.90
20714;DHT22;10518;50.742;4.226;2022-11-15T10:38:11;13.10;99.90
20714;DHT22;10518;50.742;4.226;2022-11-15T10:40:38;12.90;99.90
20714;DHT22;10518;50.742;4.226;2022-11-15T10:45:36;13.30;99.90
20714;DHT22;10518;50.742;4.226;2022-11-15T10:48:29;13.10;99.90
20714;DHT22;10518;50.742;4.226;2022-11-15T10:50:55;13.20;99.90
20714;DHT22;10518;50.742;4.226;2022-11-15T10:53:25;13.10;99.90
20714;DHT22;10518;50.742;4.226;2022-11-15T10:55:55;13.50;99.90
20714;DHT22;10518;50.742;4.226;2022-11-15T11:01:19;13.70;99.90
20714;DHT22;10518;50.742;4.226;2022-11-15T11:06:27;13.80;99.90
20714;DHT22;10518;50.742;4.226;2022-11-15T11:08:58;13.90;99.90
20714;DHT22;10518;50.742;4.226;2022-11-15T11:11:25;13.70;99.90
20714;DHT22;10518;50.742;4.226;2022-11-15T11:14:13;13.70;99.90
20714;DHT22;10518;50.742;4.226;2022-11-15T11:16:47;13.70;99.90
20714;DHT22;10518;50.742;4.226;2022-11-15T11:25:01;13.80;99.90
20714;DHT22;10518;50.742;4.226;2022-11-15T11:30:08;13.90;99.90
20714;DHT22;10518;50.742;4.226;2022-11-15T11:33:02;14.00;99.90
20714;DHT22;10518;50.742;4.226;2022-11-15T11:38:50;13.90;99.90
20714;DHT22;10518;50.742;4.226;2022-11-15T11:44:33;13.70;99.90
20714;DHT22;10518;50.742;4.226;2022-11-15T11:47:09;13.70;99.90
20714;DHT22;10518;50.742;4.226;2022-11-15T11:49:52;13.70;99.90
20714;DHT22;10518;50.742;4.226;2022-11-15T11:53:26;13.70;99.90
20714;DHT22;10518;50.742;4.226;2022-11-15T11:58:14;13.80;99.90
20714;DHT22;10518;50.742;4.226;2022-11-15T12:00:46;13.80;99.90
20714;DHT22;10518;50.742;4.226;2022-11-15T12:03:30;14.20;99.90
20714;DHT22;10518;50.742;4.226;2022-11-15T12:06:04;14.60;99.90
20714;DHT22;10518;50.742;4.226;2022-11-15T12:08:49;14.70;99.90
20714;DHT22;10518;50.742;4.226;2022-11-15T12:11:57;14.20;99.90
20714;DHT22;10518;50.742;4.226;2022-11-15T12:17:17;14.10;99.90
20714;DHT22;10518;50.742;4.226;2022-11-15T12:19:45;13.90;99.90
20714;DHT22;10518;50.742;4.226;2022-11-15T12:22:17;14.10;99.90
20714;DHT22;10518;50.742;4.226;2022-11-15T12:24:54;14.10;99.90
20714;DHT22;10518;50.742;4.226;2022-11-15T12:27:42;14.10;99.90
20714;DHT22;10518;50.742;4.226;2022-11-15T12:30:16;14.30;99.90
20714;DHT22;10518;50.742;4.226;2022-11-15T12:32:57;14.20;99.90
20714;DHT22;10518;50.742;4.226;2022-11-15T12:35:39;14.20;99.90
20714;DHT22;10518;50.742;4.226;2022-11-15T12:38:10;14.10;99.90
20714;DHT22;10518;50.742;4.226;2022-11-15T12:41:20;14.20;99.90
20714;DHT22;10518;50.742;4.226;2022-11-15T12:43:34;14.20;99.90
20714;DHT22;10518;50.742;4.226;2022-11-15T12:46:04;14.30;99.90
20714;DHT22;10518;50.742;4.226;2022-11-15T12:51:03;14.40;99.90
20714;DHT22;10518;50.742;4.226;2022-11-15T12:53:31;14.30;99.90
20714;DHT22;10518;50.742;4.226;2022-11-15T13:01:09;14.40;99.90
20714;DHT22;10518;50.742;4.226;2022-11-15T13:03:35;14.70;99.90
20714;DHT22;10518;50.742;4.226;2022-11-15T13:06:04;14.50;99.90
20714;DHT22;10518;50.742;4.226;2022-11-15T13:08:42;14.40;99.90
20714;DHT22;10518;50.742;4.226;2022-11-15T13:11:44;14.40;99.90
20714;DHT22;10518;50.742;4.226;2022-11-15T13:14:39;14.30;99.90
20714;DHT22;10518;50.742;4.226;2022-11-15T13:17:25;14.40;99.90
20714;DHT22;10518;50.742;4.226;2022-11-15T13:30:41;14.40;99.90
20714;DHT22;10518;50.742;4.226;2022-11-15T13:33:16;14.20;99.90
20714;DHT22;10518;50.742;4.226;2022-11-15T13:35:46;14.20;99.90
20714;DHT22;10518;50.742;4.226;2022-11-15T13:40:52;14.00;99.90
20714;DHT22;10518;50.742;4.226;2022-11-15T13:43:34;14.00;99.90
20714;DHT22;10518;50.742;4.226;2022-11-15T13:48:43;14.20;99.90
20714;DHT22;10518;50.742;4.226;2022-11-15T13:56:49;14.50;99.90
20714;DHT22;10518;50.742;4.226;2022-11-15T13:59:56;14.30;99.90
20714;DHT22;10518;50.742;4.226;2022-11-15T14:02:21;14.00;99.90
20714;DHT22;10518;50.742;4.226;2022-11-15T14:07:26;14.10;99.90
20714;DHT22;10518;50.742;4.226;2022-11-15T14:09:53;14.10;99.90
20714;DHT22;10518;50.742;4.226;2022-11-15T14:12:33;14.10;99.90
20714;DHT22;10518;50.742;4.226;2022-11-15T14:15:02;14.10;99.90
20714;DHT22;10518;50.742;4.226;2022-11-15T14:19:53;14.00;99.90
20714;DHT22;10518;50.742;4.226;2022-11-15T14:22:28;13.80;99.90
20714;DHT22;10518;50.742;4.226;2022-11-15T14:27:42;14.00;99.90
20714;DHT22;10518;50.742;4.226;2022-11-15T14:30:15;13.70;99.90
20714;DHT22;10518;50.742;4.226;2022-11-15T14:32:47;13.80;99.90
20714;DHT22;10518;50.742;4.226;2022-11-15T14:35:19;13.80;99.90
20714;DHT22;10518;50.742;4.226;2022-11-15T14:37:46;13.90;99.90
20714;DHT22;10518;50.742;4.226;2022-11-15T14:40:17;13.60;99.90
20714;DHT22;10518;50.742;4.226;2022-11-15T14:42:47;13.50;99.90
20714;DHT22;10518;50.742;4.226;2022-11-15T14:45:18;13.60;99.90
20714;DHT22;10518;50.742;4.226;2022-11-15T14:47:44;13.60;99.90
20714;DHT22;10518;50.742;4.226;2022-11-15T14:50:19;13.60;99.90
20714;DHT22;10518;50.742;4.226;2022-11-15T14:52:45;13.80;99.90
20714;DHT22;10518;50.742;4.226;2022-11-15T14:55:30;13.70;99.90
20714;DHT22;10518;50.742;4.226;2022-11-15T14:57:58;13.70;99.90
20714;DHT22;10518;50.742;4.226;2022-11-15T15:00:24;13.70;99.90
20714;DHT22;10518;50.742;4.226;2022-11-15T15:02:52;13.60;99.90
20714;DHT22;10518;50.742;4.226;2022-11-15T15:05:24;13.40;99.90
20714;DHT22;10518;50.742;4.226;2022-11-15T15:07:50;13.60;99.90
20714;DHT22;10518;50.742;4.226;2022-11-15T15:10:18;13.60;99.90
20714;DHT22;10518;50.742;4.226;2022-11-15T15:12:43;13.60;99.90
20714;DHT22;10518;50.742;4.226;2022-11-15T15:15:21;13.40;99.90
20714;DHT22;10518;50.742;4.226;2022-11-15T15:17:48;13.40;99.90
20714;DHT22;10518;50.742;4.226;2022-11-15T15:20:14;13.20;99.90
20714;DHT22;10518;50.742;4.226;2022-11-15T15:22:40;13.20;99.90
20714;DHT22;10518;50.742;4.226;2022-11-15T15:25:28;13.20;99.90
20714;DHT22;10518;50.742;4.226;2022-11-15T15:27:54;13.20;99.90
20714;DHT22;10518;50.742;4.226;2022-11-15T15:30:21;13.30;99.90
20714;DHT22;10518;50.742;4.226;2022-11-15T15:32:47;13.60;99.90
20714;DHT22;10518;50.742;4.226;2022-11-15T15:35:14;13.60;99.90
20714;DHT22;10518;50.742;4.226;2022-11-15T15:37:41;13.60;99.90
20714;DHT22;10518;50.742;4.226;2022-11-15T15:40:19;13.40;99.90
20714;DHT22;10518;50.742;4.226;2022-11-15T15:42:46;13.20;99.90
20714;DHT22;10518;50.742;4.226;2022-11-15T15:45:12;13.00;99.90
20714;DHT22;10518;50.742;4.226;2022-11-15T15:47:38;13.10;99.90
20714;DHT22;10518;50.742;4.226;2022-11-15T15:52:40;13.40;99.90
20714;DHT22;10518;50.742;4.226;2022-11-15T15:55:05;13.20;99.90
20714;DHT22;10518;50.742;4.226;2022-11-15T15:57:32;13.30;99.90
20714;DHT22;10518;50.742;4.226;2022-11-15T15:59:57;13.30;99.90
20714;DHT22;10518;50.742;4.226;2022-11-15T16:02:23;13.40;99.90
20714;DHT22;10518;50.742;4.226;2022-11-15T16:04:48;13.50;99.90
20714;DHT22;10518;50.742;4.226;2022-11-15T16:07:22;13.30;99.90
20714;DHT22;10518;50.742;4.226;2022-11-15T16:09:51;13.20;99.90
20714;DHT22;10518;50.742;4.226;2022-11-15T16:12:33;13.40;99.90
20714;DHT22;10518;50.742;4.226;2022-11-15T16:14:58;13.50;99.90
20714;DHT22;10518;50.742;4.226;2022-11-15T16:17:26;13.30;99.90
20714;DHT22;10518;50.742;4.226;2022-11-15T16:19:53;13.50;99.90
20714;DHT22;10518;50.742;4.226;2022-11-15T16:22:19;13.40;99.90
20714;DHT22;10518;50.742;4.226;2022-11-15T16:24:45;13.60;99.90
20714;DHT22;10518;50.742;4.226;2022-11-15T16:27:16;13.40;99.90
20714;DHT22;10518;50.742;4.226;2022-11-15T16:29:42;13.10;99.90
20714;DHT22;10518;50.742;4.226;2022-11-15T16:32:08;13.20;99.90
20714;DHT22;10518;50.742;4.226;2022-11-15T16:34:33;13.40;99.90
20714;DHT22;10518;50.742;4.226;2022-11-15T16:36:59;13.20;99.90
20714;DHT22;10518;50.742;4.226;2022-11-15T16:39:25;13.30;99.90
20714;DHT22;10518;50.742;4.226;2022-11-15T16:41:53;13.30;99.90
20714;DHT22;10518;50.742;4.226;2022-11-15T16:44:18;13.20;99.90
20714;DHT22;10518;50.742;4.226;2022-11-15T16:46:44;13.40;99.90
20714;DHT22;10518;50.742;4.226;2022-11-15T16:49:16;13.20;99.90
20714;DHT22;10518;50.742;4.226;2022-11-15T16:51:42;13.20;99.90
20714;DHT22;10518;50.742;4.226;2022-11-15T16:54:09;13.20;99.90
20714;DHT22;10518;50.742;4.226;2022-11-15T16:56:35;13.30;99.90
20714;DHT22;10518;50.742;4.226;2022-11-15T16:59:01;13.70;99.90
20714;DHT22;10518;50.742;4.226;2022-11-15T17:01:31;13.50;99.90
20714;DHT22;10518;50.742;4.226;2022-11-15T17:03:58;13.80;99.90
20714;DHT22;10518;50.742;4.226;2022-11-15T17:06:25;14.10;99.90
20714;DHT22;10518;50.742;4.226;2022-11-15T17:08:51;13.60;99.90
20714;DHT22;10518;50.742;4.226;2022-11-15T17:11:19;13.70;99.90
20714;DHT22;10518;50.742;4.226;2022-11-15T17:13:45;13.80;99.90
20714;DHT22;10518;50.742;4.226;2022-11-15T17:16:13;13.80;99.90
20714;DHT22;10518;50.742;4.226;2022-11-15T17:18:40;14.00;99.90
20714;DHT22;10518;50.742;4.226;2022-11-15T17:21:08;14.00;99.90
20714;DHT22;10518;50.742;4.226;2022-11-15T17:23:34;13.70;99.90
20714;DHT22;10518;50.742;4.226;2022-11-15T17:26:01;13.50;99.90
20714;DHT22;10518;50.742;4.226;2022-11-15T17:28:28;13.40;99.90
20714;DHT22;10518;50.742;4.226;2022-11-15T17:30:54;13.60;99.90
20714;DHT22;10518;50.742;4.226;2022-11-15T17:33:19;13.40;99.90
20714;DHT22;10518;50.742;4.226;2022-11-15T17:35:45;13.40;99.90
20714;DHT22;10518;50.742;4.226;2022-11-15T17:38:11;13.60;99.90